Girard, Texas
Current Conditions -  °F | °C
As of 4:35 PM on Wednesday 22 Oct 2014 (Local Time) from KSNK Reporting Station
Haze Haze  
Wind Chill: 62°   Ceiling: 4400
Heat Index: 62°   Visibility: 5mi
Dew Point: 61°   Wind: 10mph
Humidity: 96%   Direction: 110°ESE
Pressure: 30.11"   Gusts: NA
Location:  33.36°N, 100.66°W
Report Text: KSNK 222135Z AUTO 11009KT 5SM BR OVC044 17/16 A3011 RMK AO2 T01660160
Loading
Personal Weather Stations






























Interactive Weather Map
Tropical Storm Tracking
New forecast layout! Learn more

10-Day Weather Forecast

Advertisements
Track Severe Weather on mobile